Terminal Aerodrome Forecast
Issued by NWS

Current Version | Previous Version | Text Only | Print | Product List | Glossary On
Versions: 1 2 3 4 5 6 7 8 9 10 11 12 13 14 15 16 17 18
000
FTAK31 PANC 242329
TAFADU
TAF
PADU 242329Z 2500/2524 21005KT P6SM VCSH SCT025 BKN040
     FM250400 33005KT 6SM -RA BKN025
     FM251800 28005KT P6SM SCT025 BKN040=

USA.gov is the U.S. government's official web portal to all federal, state and local government web resources and services.